Time;durP1;ratioP1;P1;durP2;ratioP2;P2;SDS_P1;SDS_P2;PMS_P1;PMS_P2;Temp;Humidity;BMP_temperature;BMP_pressure;BME280_temperature;BME280_humidity;BME280_pressure;Samples;Min_cycle;Max_cycle;Signal;HPM_P1;HPM_P2
2022/08/07 00:02:24;;;;;;;1.47;0.90;;;9.20;99.90;;;;;;8338159;28;20198;-66
2022/08/07 00:06:25;;;;;;;0.80;0.80;;;9.10;87.90;;;;;;8336981;28;20193;-66
2022/08/07 00:10:27;;;;;;;3.43;0.90;;;9.10;1.00;;;;;;8349440;28;20205;-66
2022/08/07 00:14:29;;;;;;;0.77;0.77;;;9.00;19.60;;;;;;8332894;28;20252;-66
2022/08/07 00:18:30;;;;;;;1.07;0.90;;;8.90;99.90;;;;;;8335211;28;20229;-67
2022/08/07 00:22:32;;;;;;;1.00;0.87;;;8.90;99.90;;;;;;8340747;28;20277;-67
2022/08/07 00:26:33;;;;;;;1.20;1.10;;;8.90;99.90;;;;;;8340151;28;20190;-67
2022/08/07 00:30:34;;;;;;;1.67;0.90;;;8.80;99.90;;;;;;8335239;28;20197;-67
2022/08/07 00:34:34;;;;;;;0.77;0.73;;;8.80;99.90;;;;;;8332232;28;20206;-66
2022/08/07 00:38:35;;;;;;;1.43;0.87;;;8.80;99.90;;;;;;8349926;28;20186;-68
2022/08/07 00:42:36;;;;;;;1.40;0.90;;;8.70;99.90;;;;;;8337422;28;20174;-66
2022/08/07 00:46:37;;;;;;;0.93;0.90;;;8.70;99.90;;;;;;8334872;28;20226;-66
2022/08/07 00:50:39;;;;;;;2.83;1.10;;;8.60;99.90;;;;;;8334300;28;20463;-66
2022/08/07 00:54:40;;;;;;;2.10;1.07;;;8.50;1.00;;;;;;8336965;28;20218;-65
2022/08/07 00:58:42;;;;;;;1.13;0.93;;;8.50;1.00;;;;;;8338396;28;20227;-65
2022/08/07 01:02:45;;;;;;;0.97;0.87;;;8.40;1.00;;;;;;8334807;28;20183;-66
2022/08/07 01:06:46;;;;;;;1.00;0.90;;;8.30;1.00;;;;;;8337970;28;20193;-66
2022/08/07 01:10:46;;;;;;;1.40;1.10;;;8.30;1.00;;;;;;8333283;28;20229;-66
2022/08/07 01:14:47;;;;;;;1.93;1.10;;;8.30;1.00;;;;;;8334187;28;20209;-66
2022/08/07 01:18:48;;;;;;;1.60;1.00;;;8.20;81.90;;;;;;8351465;28;20237;-66
2022/08/07 01:22:50;;;;;;;1.77;1.10;;;8.20;69.40;;;;;;8333520;28;20186;-66
2022/08/07 01:26:52;;;;;;;1.03;1.03;;;8.10;40.80;;;;;;8337318;28;20227;-66
2022/08/07 01:30:54;;;;;;;1.83;1.13;;;8.10;29.20;;;;;;8334834;28;20194;-66
2022/08/07 01:34:55;;;;;;;1.43;1.30;;;8.00;25.80;;;;;;8340082;28;20209;-65
2022/08/07 01:38:56;;;;;;;1.20;1.10;;;8.00;74.60;;;;;;8338527;28;20188;-66
2022/08/07 01:42:57;;;;;;;1.27;1.17;;;7.90;42.90;;;;;;8358626;28;20185;-66
2022/08/07 01:46:58;;;;;;;1.60;1.50;;;7.90;97.80;;;;;;8354451;28;20201;-66
2022/08/07 01:51:02;;;;;;;1.13;1.00;;;7.80;99.90;;;;;;8338836;28;20183;-76
2022/08/07 01:55:05;;;;;;;1.60;1.40;;;7.70;99.90;;;;;;8338459;28;20236;-66
2022/08/07 01:59:34;;;;;;;1.73;1.23;;;7.70;99.90;;;;;;8341254;28;20240;-65
2022/08/07 02:03:40;;;;;;;1.40;1.30;;;7.70;99.90;;;;;;8344689;28;20178;-65
2022/08/07 02:07:52;;;;;;;1.40;1.30;;;7.70;99.90;;;;;;8342184;28;20214;-65
2022/08/07 02:11:55;;;;;;;1.97;1.47;;;7.60;99.90;;;;;;8340188;28;20261;-66
2022/08/07 02:15:59;;;;;;;1.40;1.30;;;7.50;99.90;;;;;;8341427;28;20178;-65
2022/08/07 02:20:01;;;;;;;1.57;1.30;;;7.50;99.90;;;;;;8344122;28;20195;-65
2022/08/07 02:24:05;;;;;;;2.70;1.37;;;7.40;99.90;;;;;;8338501;28;20183;-66
2022/08/07 02:28:06;;;;;;;1.33;1.23;;;7.40;99.90;;;;;;8342726;28;20243;-65
2022/08/07 02:32:09;;;;;;;1.87;1.30;;;7.30;99.90;;;;;;8341278;28;20208;-66
2022/08/07 02:36:11;;;;;;;2.93;1.70;;;7.30;99.90;;;;;;8350023;28;20585;-66
2022/08/07 02:40:12;;;;;;;1.77;1.60;;;7.20;99.90;;;;;;8338628;28;20182;-65
2022/08/07 02:44:15;;;;;;;1.77;1.53;;;7.10;99.90;;;;;;8343293;28;20192;-65
2022/08/07 02:48:16;;;;;;;1.47;1.27;;;7.10;99.90;;;;;;8340583;28;20181;-65
2022/08/07 02:52:23;;;;;;;1.97;1.40;;;7.10;99.90;;;;;;8338538;28;20206;-65
2022/08/07 02:56:29;;;;;;;1.40;1.30;;;7.10;99.90;;;;;;8341701;28;20188;-65
2022/08/07 03:00:33;;;;;;;1.47;1.37;;;7.00;99.90;;;;;;8335504;28;20174;-66
2022/08/07 03:04:34;;;;;;;1.50;1.40;;;7.00;99.90;;;;;;8339011;28;20235;-66
2022/08/07 03:08:36;;;;;;;1.50;1.40;;;6.90;99.90;;;;;;8344997;28;20198;-67
2022/08/07 03:12:38;;;;;;;3.13;1.70;;;7.00;99.90;;;;;;8337259;28;20210;-65
2022/08/07 03:16:39;;;;;;;1.70;1.60;;;6.90;99.90;;;;;;8345344;28;20195;-66
2022/08/07 03:20:40;;;;;;;1.67;1.57;;;6.90;99.90;;;;;;8345083;28;20246;-65
2022/08/07 03:24:41;;;;;;;1.73;1.63;;;6.90;99.90;;;;;;8338321;28;20178;-65
2022/08/07 03:28:44;;;;;;;1.97;1.60;;;6.90;99.90;;;;;;8339202;28;20185;-66
2022/08/07 03:32:47;;;;;;;1.80;1.70;;;6.80;99.90;;;;;;8341437;28;20213;-65
2022/08/07 03:36:50;;;;;;;1.93;1.67;;;6.80;99.90;;;;;;8336035;28;20175;-66
2022/08/07 03:40:51;;;;;;;2.03;1.67;;;6.90;99.90;;;;;;8340250;28;20223;-65
2022/08/07 03:44:53;;;;;;;1.80;1.40;;;6.90;99.90;;;;;;8338364;28;20196;-66
2022/08/07 03:48:54;;;;;;;2.00;1.77;;;7.00;99.90;;;;;;8342254;28;20245;-65
2022/08/07 03:52:58;;;;;;;1.60;1.50;;;7.00;99.90;;;;;;8340999;28;20289;-75
2022/08/07 03:56:59;;;;;;;2.13;1.70;;;7.10;99.90;;;;;;8335645;28;20182;-65
2022/08/07 04:01:02;;;;;;;2.40;1.97;;;7.10;99.90;;;;;;8337186;28;20185;-65
2022/08/07 04:05:04;;;;;;;3.70;2.23;;;7.20;99.90;;;;;;8336653;28;20276;-66
2022/08/07 04:09:07;;;;;;;2.50;2.23;;;7.40;99.90;;;;;;8353124;28;20202;-67
2022/08/07 04:13:11;;;;;;;2.10;1.70;;;8.10;99.90;;;;;;8341686;28;20201;-66
2022/08/07 04:17:12;;;;;;;3.47;1.77;;;9.00;3.30;;;;;;8349531;28;20178;-66
2022/08/07 04:21:14;;;;;;;3.37;1.53;;;9.70;99.90;;;;;;8336190;28;20186;-67
2022/08/07 04:25:16;;;;;;;3.23;1.40;;;10.30;1.00;;;;;;8336071;28;20197;-67
2022/08/07 04:29:17;;;;;;;2.37;1.03;;;11.10;99.90;;;;;;8351355;28;20513;-75
2022/08/07 04:33:19;;;;;;;1.53;1.10;;;11.80;1.00;;;;;;8336141;28;20279;-66
2022/08/07 04:37:19;;;;;;;0.77;0.70;;;12.40;99.90;;;;;;8341470;28;20609;-67
2022/08/07 04:41:20;;;;;;;1.30;0.90;;;12.90;99.90;;;;;;8337707;28;20190;-67
2022/08/07 04:45:27;;;;;;;2.03;0.70;;;13.10;99.90;;;;;;8336077;28;20286;-66
2022/08/07 04:50:06;;;;;;;3.37;1.10;;;13.30;60.00;;;;;;8352138;28;20185;-67
2022/08/07 04:54:30;;;;;;;1.17;0.70;;;13.40;4.20;;;;;;8338277;28;20221;-67
2022/08/07 04:58:57;;;;;;;0.73;0.70;;;13.50;1.00;;;;;;8332862;28;20181;-66
2022/08/07 05:03:01;;;;;;;2.17;0.80;;;13.90;1.00;;;;;;8337551;28;20190;-66
2022/08/07 05:07:13;;;;;;;1.57;1.03;;;14.20;1.00;;;;;;8340908;28;20190;-66
2022/08/07 05:11:23;;;;;;;1.00;0.90;;;14.00;16.80;;;;;;8350118;28;20279;-67
2022/08/07 05:15:34;;;;;;;2.20;1.07;;;13.50;75.90;;;;;;8358157;28;20241;-66
2022/08/07 05:19:39;;;;;;;1.10;0.97;;;13.10;99.90;;;;;;8346377;28;20206;-66
2022/08/07 05:23:56;;;;;;;1.63;1.30;;;12.80;99.90;;;;;;8345277;28;20190;-67
2022/08/07 05:27:57;;;;;;;2.47;1.33;;;12.70;99.90;;;;;;8341617;28;20551;-66
2022/08/07 05:31:59;;;;;;;4.93;1.20;;;12.50;99.90;;;;;;8340952;28;20182;-66
2022/08/07 05:36:02;;;;;;;1.47;1.30;;;12.40;99.90;;;;;;8357018;28;20272;-67
2022/08/07 05:40:03;;;;;;;2.37;1.53;;;12.50;99.90;;;;;;8341165;28;20200;-67
2022/08/07 05:44:04;;;;;;;2.97;1.63;;;12.60;99.90;;;;;;8344862;28;20224;-66
2022/08/07 05:48:06;;;;;;;2.70;1.83;;;12.70;99.90;;;;;;8346706;28;20185;-67
2022/08/07 05:52:07;;;;;;;4.97;1.47;;;12.90;99.90;;;;;;8345029;28;20269;-67
2022/08/07 05:56:09;;;;;;;2.50;2.00;;;13.10;99.90;;;;;;8341905;28;20186;-67
2022/08/07 06:00:11;;;;;;;4.13;2.40;;;13.40;99.90;;;;;;8343442;28;20194;-73
2022/08/07 06:04:15;;;;;;;4.73;4.00;;;13.60;99.90;;;;;;8340357;28;20190;-67
2022/08/07 06:08:16;;;;;;;6.40;3.80;;;13.90;99.90;;;;;;8342756;28;20191;-67
2022/08/07 06:12:18;;;;;;;6.60;3.40;;;14.20;99.90;;;;;;8340883;28;20225;-67
2022/08/07 06:16:22;;;;;;;3.10;1.50;;;14.40;99.90;;;;;;8342930;28;20640;-67
2022/08/07 06:20:23;;;;;;;3.00;1.50;;;14.70;43.40;;;;;;8340495;28;20191;-66
2022/08/07 06:24:24;;;;;;;4.17;2.00;;;15.00;17.80;;;;;;8348178;28;20186;-67
2022/08/07 06:28:25;;;;;;;6.00;4.17;;;15.30;7.90;;;;;;8337962;28;20189;-67
2022/08/07 06:32:26;;;;;;;5.00;1.80;;;15.60;1.00;;;;;;8341922;28;20233;-67
2022/08/07 06:36:27;;;;;;;2.33;1.40;;;15.80;1.00;;;;;;8338280;28;20206;-69
2022/08/07 06:40:34;;;;;;;5.03;1.50;;;16.00;1.00;;;;;;8340471;28;20182;-67
2022/08/07 06:44:36;;;;;;;3.70;1.30;;;16.10;1.00;;;;;;8335949;28;20186;-67
2022/08/07 06:48:37;;;;;;;3.80;1.80;;;16.20;1.00;;;;;;8338965;28;20186;-68
2022/08/07 06:52:42;;;;;;;4.87;1.80;;;16.30;1.00;;;;;;8349037;28;20529;-67
2022/08/07 06:56:50;;;;;;;1.90;1.40;;;16.30;1.00;;;;;;8344916;28;20182;-67
2022/08/07 07:00:52;;;;;;;3.23;1.40;;;16.40;1.00;;;;;;8340496;28;20177;-67
2022/08/07 07:04:53;;;;;;;5.70;1.63;;;16.60;1.00;;;;;;8338883;28;20186;-67
2022/08/07 07:09:13;;;;;;;4.97;1.40;;;16.70;1.00;;;;;;8334486;28;20247;-67
2022/08/07 07:13:18;;;;;;;3.00;1.07;;;16.90;1.00;;;;;;8336568;28;20216;-67
2022/08/07 07:17:57;;;;;;;1.43;1.00;;;17.20;1.00;;;;;;8338339;28;20276;-67
2022/08/07 07:21:59;;;;;;;3.37;1.30;;;17.30;1.00;;;;;;8336939;28;20183;-67
2022/08/07 07:26:03;;;;;;;3.70;1.10;;;17.60;1.00;;;;;;8339109;28;20189;-67
2022/08/07 07:30:06;;;;;;;1.60;0.83;;;17.80;1.00;;;;;;8332821;28;20190;-67
2022/08/07 07:34:09;;;;;;;2.07;1.10;;;18.10;1.00;;;;;;8336290;28;20210;-67
2022/08/07 07:38:12;;;;;;;0.83;0.70;;;18.40;1.00;;;;;;8334665;28;20262;-67
2022/08/07 07:42:16;;;;;;;1.87;0.80;;;18.60;1.00;;;;;;8335161;28;20194;-67
2022/08/07 07:46:21;;;;;;;1.90;0.70;;;18.80;1.00;;;;;;8337084;28;20264;-66
2022/08/07 07:50:23;;;;;;;1.77;0.80;;;18.90;1.00;;;;;;8336453;28;20187;-66
2022/08/07 07:54:26;;;;;;;1.20;0.70;;;19.00;1.00;;;;;;8353198;28;20237;-67
2022/08/07 07:58:30;;;;;;;3.00;1.20;;;19.10;1.00;;;;;;8340821;28;20473;-67
2022/08/07 08:02:34;;;;;;;1.50;1.13;;;19.30;1.00;;;;;;8349274;28;20193;-67
2022/08/07 08:06:35;;;;;;;2.43;0.80;;;19.50;1.00;;;;;;8340187;28;20190;-67
2022/08/07 08:10:38;;;;;;;0.90;0.63;;;19.60;1.00;;;;;;8339839;28;20293;-67
2022/08/07 08:14:40;;;;;;;2.10;0.80;;;19.70;1.00;;;;;;8335555;28;20238;-67
2022/08/07 08:18:43;;;;;;;1.80;1.00;;;19.90;1.00;;;;;;8340979;28;20190;-66
2022/08/07 08:27:08;;;;;;;1.73;0.80;;;20.20;1.00;;;;;;8338421;28;20239;-67
2022/08/07 08:31:14;;;;;;;2.20;0.90;;;20.20;1.00;;;;;;8338331;28;20386;-67
2022/08/07 08:35:20;;;;;;;5.13;1.07;;;20.10;1.00;;;;;;8338611;28;20220;-69
2022/08/07 08:39:21;;;;;;;1.30;0.87;;;20.30;1.00;;;;;;8335780;28;20240;-67
2022/08/07 08:43:50;;;;;;;4.30;0.90;;;20.40;1.00;;;;;;8333547;28;20284;-68
2022/08/07 08:48:26;;;;;;;1.60;0.77;;;20.50;1.00;;;;;;8340649;28;20246;-65
2022/08/07 08:52:33;;;;;;;0.77;0.50;;;20.60;1.00;;;;;;8337279;28;20205;-67
2022/08/07 08:56:48;;;;;;;0.90;0.67;;;20.90;1.00;;;;;;8349675;28;20230;-65
2022/08/07 09:01:09;;;;;;;1.60;0.60;;;21.20;1.00;;;;;;8343713;28;20183;-68
2022/08/07 09:05:33;;;;;;;2.50;0.87;;;21.50;1.00;;;;;;8339940;28;20182;-67
2022/08/07 09:09:41;;;;;;;1.53;0.80;;;21.80;1.00;;;;;;8341048;28;20198;-68
2022/08/07 09:13:51;;;;;;;3.37;0.90;;;22.10;1.00;;;;;;8340906;28;20213;-67
2022/08/07 09:18:18;;;;;;;1.73;0.80;;;22.00;1.00;;;;;;8339362;28;20181;-67
2022/08/07 09:22:53;;;;;;;1.43;0.53;;;22.20;1.00;;;;;;8344836;28;20213;-67
2022/08/07 09:27:05;;;;;;;3.17;0.67;;;22.50;1.00;;;;;;8337273;28;20182;-67
2022/08/07 09:31:42;;;;;;;2.80;0.60;;;22.80;1.00;;;;;;8334964;28;20194;-65
2022/08/07 09:35:57;;;;;;;1.90;0.70;;;22.50;1.00;;;;;;8340455;28;20319;-63
2022/08/07 09:40:20;;;;;;;3.83;0.73;;;22.80;1.00;;;;;;8333940;28;20183;-65
2022/08/07 09:44:36;;;;;;;2.93;0.80;;;22.80;1.00;;;;;;8335576;28;20185;-67
2022/08/07 09:49:14;;;;;;;2.40;0.60;;;22.50;1.00;;;;;;8342179;28;20232;-67
2022/08/07 09:53:16;;;;;;;1.60;0.60;;;21.70;1.00;;;;;;8334291;28;20248;-68
2022/08/07 09:57:52;;;;;;;2.97;0.83;;;21.30;1.00;;;;;;8339476;28;20188;-67
2022/08/07 10:02:11;;;;;;;0.90;0.50;;;21.70;1.00;;;;;;8333500;28;20247;-64
2022/08/07 10:06:15;;;;;;;0.97;0.57;;;22.60;1.00;;;;;;8347866;28;20193;-64
2022/08/07 10:10:44;;;;;;;2.20;0.67;;;23.20;1.00;;;;;;8345655;28;20209;-65
2022/08/07 10:15:22;;;;;;;2.20;0.50;;;23.20;1.00;;;;;;8341258;28;20224;-65
2022/08/07 10:20:16;;;;;;;1.03;0.60;;;22.90;1.00;;;;;;8340173;28;20186;-65
2022/08/07 10:25:03;;;;;;;2.40;0.53;;;23.30;1.00;;;;;;8345837;28;20186;-66
2022/08/07 10:29:10;;;;;;;2.30;0.60;;;24.00;1.00;;;;;;8342512;28;20231;-66
2022/08/07 10:33:30;;;;;;;2.63;0.70;;;24.30;1.00;;;;;;8335928;28;20256;-64
2022/08/07 10:38:08;;;;;;;1.17;0.60;;;24.30;1.00;;;;;;8345884;28;20194;-65
2022/08/07 10:42:29;;;;;;;1.83;0.90;;;24.50;1.00;;;;;;8340334;28;20187;-64
2022/08/07 10:46:41;;;;;;;2.60;0.90;;;24.60;1.00;;;;;;8336866;28;20235;-64
2022/08/07 10:50:51;;;;;;;0.90;0.70;;;24.80;1.00;;;;;;8344257;28;20178;-67
2022/08/07 10:55:06;;;;;;;2.33;1.00;;;25.00;1.00;;;;;;8342626;28;20236;-65
2022/08/07 10:59:28;;;;;;;2.03;0.90;;;24.80;99.90;;;;;;8353000;28;20194;-67
2022/08/07 11:03:40;;;;;;;1.43;0.80;;;24.80;99.90;;;;;;8341081;28;20204;-65
2022/08/07 11:08:07;;;;;;;0.90;0.80;;;24.70;99.90;;;;;;8337152;28;20191;-66
2022/08/07 11:12:18;;;;;;;3.97;0.97;;;24.70;99.90;;;;;;8351362;28;21043;-66
2022/08/07 11:16:57;;;;;;;1.33;0.87;;;24.80;99.90;;;;;;8340854;28;20268;-67
2022/08/07 11:21:05;;;;;;;1.83;0.77;;;24.80;99.90;;;;;;8344806;28;20189;-63
2022/08/07 11:25:50;;;;;;;3.00;0.97;;;24.80;1.00;;;;;;8357344;28;20187;-65
2022/08/07 11:30:05;;;;;;;1.60;0.83;;;25.00;99.90;;;;;;8343330;28;20217;-66
2022/08/07 11:34:37;;;;;;;1.63;0.90;;;25.40;99.90;;;;;;8348764;28;20206;-65
2022/08/07 11:39:20;;;;;;;1.30;0.70;;;25.60;99.90;;;;;;8338859;28;20180;-65
2022/08/07 11:43:33;;;;;;;1.97;1.13;;;25.50;99.90;;;;;;8345339;28;20270;-66
2022/08/07 11:47:57;;;;;;;1.17;0.77;;;25.30;99.90;;;;;;8339933;28;20264;-65
2022/08/07 11:52:23;;;;;;;1.63;0.90;;;24.50;99.90;;;;;;8336145;28;20184;-67
2022/08/07 11:57:01;;;;;;;2.23;1.07;;;24.30;99.90;;;;;;8342644;28;20195;-64
2022/08/07 12:01:14;;;;;;;1.00;0.80;;;24.50;99.90;;;;;;8337754;28;20273;-66
2022/08/07 12:05:52;;;;;;;1.93;0.90;;;24.70;99.90;;;;;;8338516;28;20228;-66
2022/08/07 12:10:07;;;;;;;1.33;0.80;;;24.80;99.90;;;;;;8341843;28;20338;-64
2022/08/07 12:14:30;;;;;;;2.40;1.00;;;25.00;99.90;;;;;;8353519;28;20308;-64
2022/08/07 12:18:44;;;;;;;2.27;1.03;;;25.40;99.90;;;;;;8352078;28;20189;-66
2022/08/07 12:23:08;;;;;;;1.70;1.00;;;25.50;99.90;;;;;;8334426;28;20254;-66
2022/08/07 12:27:15;;;;;;;1.77;0.90;;;25.30;99.90;;;;;;8336622;28;20185;-66
2022/08/07 12:31:45;;;;;;;1.57;0.97;;;25.20;99.90;;;;;;8334166;28;20206;-65
2022/08/07 12:35:49;;;;;;;3.83;0.90;;;25.10;99.90;;;;;;8341962;28;20465;-66
2022/08/07 12:39:56;;;;;;;1.20;0.73;;;24.50;99.90;;;;;;8342656;28;20186;-65
2022/08/07 12:43:58;;;;;;;2.43;0.80;;;24.20;99.90;;;;;;8339310;28;20231;-65
2022/08/07 12:48:10;;;;;;;1.77;1.00;;;24.20;99.90;;;;;;8336315;28;20206;-66
2022/08/07 12:52:13;;;;;;;2.87;1.20;;;24.30;99.90;;;;;;8331771;28;20182;-66
2022/08/07 12:56:21;;;;;;;1.40;0.90;;;24.20;99.90;;;;;;8340002;28;20214;-66
2022/08/07 13:00:37;;;;;;;1.00;0.90;;;24.60;99.90;;;;;;8332787;28;20579;-66
2022/08/07 13:04:46;;;;;;;2.67;1.10;;;24.80;99.90;;;;;;8334514;28;20190;-66
2022/08/07 13:09:09;;;;;;;1.90;0.83;;;25.10;99.90;;;;;;8335754;28;20253;-66
2022/08/07 13:13:16;;;;;;;1.60;0.70;;;25.40;99.90;;;;;;8335465;28;20209;-66
2022/08/07 13:17:26;;;;;;;1.13;0.70;;;25.20;99.90;;;;;;8335133;28;20182;-65
2022/08/07 13:21:51;;;;;;;1.97;1.10;;;24.80;99.90;;;;;;8340918;28;20203;-66
2022/08/07 13:26:06;;;;;;;1.70;0.90;;;24.60;99.90;;;;;;8341835;28;20189;-72
2022/08/07 13:30:09;;;;;;;1.53;1.10;;;24.60;99.90;;;;;;8341859;28;20239;-66
2022/08/07 13:34:39;;;;;;;2.10;0.87;;;24.60;99.90;;;;;;8340650;28;20198;-66
2022/08/07 13:39:12;;;;;;;1.77;1.00;;;24.90;99.90;;;;;;8347114;28;20208;-65
2022/08/07 13:43:14;;;;;;;2.23;1.00;;;25.00;99.90;;;;;;8341552;28;20190;-66
2022/08/07 13:47:18;;;;;;;1.97;1.10;;;25.00;99.90;;;;;;8343240;28;20190;-66
2022/08/07 13:51:20;;;;;;;1.87;1.20;;;24.70;99.90;;;;;;8339514;28;20179;-66
2022/08/07 13:55:22;;;;;;;3.63;1.23;;;24.60;99.90;;;;;;8341813;28;20206;-66
2022/08/07 13:59:30;;;;;;;3.13;1.50;;;24.50;99.90;;;;;;8341586;28;20183;-64
2022/08/07 14:03:35;;;;;;;1.27;0.97;;;24.50;99.90;;;;;;8340053;28;20194;-64
2022/08/07 14:07:47;;;;;;;3.10;1.20;;;24.60;99.90;;;;;;8348937;28;20187;-63
2022/08/07 14:11:54;;;;;;;1.90;1.17;;;24.70;99.90;;;;;;8342694;28;20307;-68
2022/08/07 14:16:00;;;;;;;2.07;0.90;;;24.90;99.90;;;;;;8342142;28;20676;-66
2022/08/07 14:20:30;;;;;;;2.50;1.37;;;25.00;99.90;;;;;;8351227;28;20182;-66
2022/08/07 14:24:36;;;;;;;2.33;1.10;;;25.20;99.90;;;;;;8337951;28;20202;-63
2022/08/07 14:28:41;;;;;;;2.97;1.37;;;25.20;99.90;;;;;;8351210;28;20189;-64
2022/08/07 14:32:53;;;;;;;1.07;0.87;;;25.00;99.90;;;;;;8340100;28;20262;-65
2022/08/07 14:36:54;;;;;;;1.73;1.07;;;24.80;99.90;;;;;;8355589;28;20189;-66
2022/08/07 14:40:59;;;;;;;3.17;0.80;;;24.80;99.90;;;;;;8342237;28;20188;-73
2022/08/07 14:45:04;;;;;;;1.40;1.00;;;24.70;99.90;;;;;;8355709;28;20586;-65
2022/08/07 14:49:06;;;;;;;1.50;1.00;;;24.60;99.90;;;;;;8340978;28;20197;-66
2022/08/07 14:53:09;;;;;;;2.27;1.10;;;24.40;99.90;;;;;;8342598;28;20198;-66
2022/08/07 14:57:15;;;;;;;0.87;0.80;;;24.30;99.90;;;;;;8346060;28;20277;-66
2022/08/07 15:01:18;;;;;;;2.13;1.33;;;24.30;99.90;;;;;;8361969;28;20210;-66
2022/08/07 15:05:21;;;;;;;1.63;1.10;;;24.20;99.90;;;;;;8349177;28;20182;-66
2022/08/07 15:09:23;;;;;;;3.27;1.37;;;24.20;99.90;;;;;;8355329;28;20270;-66
2022/08/07 15:13:28;;;;;;;5.43;1.20;;;24.00;99.90;;;;;;8344609;28;20205;-67
2022/08/07 15:17:33;;;;;;;1.30;0.83;;;24.10;99.90;;;;;;8360750;28;20278;-66
2022/08/07 15:21:37;;;;;;;1.57;1.10;;;24.20;99.90;;;;;;8340348;28;20212;-67
2022/08/07 15:25:43;;;;;;;1.80;1.17;;;24.10;99.90;;;;;;8340939;28;20189;-66
2022/08/07 15:29:54;;;;;;;1.70;1.00;;;24.00;99.90;;;;;;8337406;28;20584;-65
2022/08/07 15:33:59;;;;;;;1.93;1.07;;;23.90;99.90;;;;;;8337739;28;20512;-66
2022/08/07 15:38:01;;;;;;;1.70;1.07;;;23.80;99.90;;;;;;8340553;28;20174;-67
2022/08/07 15:42:05;;;;;;;1.60;1.20;;;23.90;99.90;;;;;;8338327;28;20190;-66
2022/08/07 15:46:37;;;;;;;2.13;1.07;;;23.80;99.90;;;;;;8360726;28;20188;-67
2022/08/07 15:50:42;;;;;;;2.47;1.10;;;23.80;99.90;;;;;;8334086;28;20240;-66
2022/08/07 15:54:44;;;;;;;2.00;1.40;;;23.80;99.90;;;;;;8339115;28;20210;-66
2022/08/07 15:58:57;;;;;;;1.83;1.07;;;23.70;99.90;;;;;;8357118;28;20379;-66
2022/08/07 16:03:01;;;;;;;2.73;1.10;;;23.70;99.90;;;;;;8348476;28;20261;-66
2022/08/07 16:07:07;;;;;;;1.10;1.00;;;23.60;99.90;;;;;;8339322;28;20277;-66
2022/08/07 16:11:36;;;;;;;1.97;0.80;;;23.70;99.90;;;;;;8346879;28;20249;-66
2022/08/07 16:16:03;;;;;;;1.73;1.20;;;23.60;99.90;;;;;;8343195;28;20218;-66
2022/08/07 16:20:37;;;;;;;1.73;0.93;;;23.50;99.90;;;;;;8347521;28;20240;-66
2022/08/07 16:25:04;;;;;;;2.20;1.00;;;23.50;99.90;;;;;;8342947;28;20185;-66
2022/08/07 16:29:45;;;;;;;1.33;0.80;;;23.40;99.90;;;;;;8345764;28;20190;-66
2022/08/07 16:33:51;;;;;;;1.23;1.10;;;23.30;99.90;;;;;;8341204;28;20210;-66
2022/08/07 16:38:26;;;;;;;2.03;1.57;;;23.30;99.90;;;;;;8337136;28;20209;-66
2022/08/07 16:42:33;;;;;;;2.37;1.43;;;23.30;99.90;;;;;;8340786;28;20257;-65
2022/08/07 16:46:55;;;;;;;1.20;1.10;;;23.20;99.90;;;;;;8345260;28;20182;-66
2022/08/07 16:51:03;;;;;;;1.10;1.00;;;23.10;99.90;;;;;;8338723;28;20182;-66
2022/08/07 16:55:10;;;;;;;2.37;1.37;;;23.00;99.90;;;;;;8340922;28;20241;-66
2022/08/07 16:59:40;;;;;;;1.87;1.40;;;22.90;99.90;;;;;;8346195;28;20175;-66
2022/08/07 17:04:02;;;;;;;2.83;1.50;;;22.90;99.90;;;;;;8342152;28;20199;-66
2022/08/07 17:08:03;;;;;;;1.53;1.27;;;22.80;99.90;;;;;;8352974;28;20193;-66
2022/08/07 17:12:33;;;;;;;2.23;1.10;;;22.80;99.90;;;;;;8341716;28;20305;-66
2022/08/07 17:16:56;;;;;;;2.67;1.23;;;22.70;99.90;;;;;;8345459;28;20205;-66
2022/08/07 17:20:58;;;;;;;3.70;1.27;;;22.60;99.90;;;;;;8345710;28;20356;-65
2022/08/07 17:25:05;;;;;;;3.87;1.20;;;22.50;99.90;;;;;;8359315;28;20186;-65
2022/08/07 17:29:11;;;;;;;2.60;1.67;;;22.40;99.90;;;;;;8349035;28;20173;-65
2022/08/07 17:33:23;;;;;;;2.80;1.10;;;22.30;99.90;;;;;;8357249;28;20198;-66
2022/08/07 17:37:40;;;;;;;5.93;1.83;;;22.30;99.90;;;;;;8350075;28;20186;-66
2022/08/07 17:41:56;;;;;;;6.20;2.40;;;22.70;99.90;;;;;;8354093;28;20266;-66
2022/08/07 17:46:19;;;;;;;3.57;1.90;;;23.30;99.90;;;;;;8352129;28;20185;-66
2022/08/07 17:50:58;;;;;;;4.23;1.73;;;23.90;99.90;;;;;;8359324;28;20281;-66
2022/08/07 17:55:14;;;;;;;3.57;2.20;;;24.10;99.90;;;;;;8351611;28;20213;-66
2022/08/07 17:59:31;;;;;;;5.93;2.83;;;24.20;99.90;;;;;;8352336;28;20185;-66
2022/08/07 18:03:47;;;;;;;7.00;3.73;;;23.90;99.90;;;;;;8354591;28;20186;-66
2022/08/07 18:08:24;;;;;;;5.23;3.00;;;23.90;99.90;;;;;;8351396;28;20179;-67
2022/08/07 18:12:46;;;;;;;3.80;2.40;;;23.80;99.90;;;;;;8357415;28;20204;-65
2022/08/07 18:16:56;;;;;;;3.27;1.73;;;23.70;99.90;;;;;;8354167;28;20189;-65
2022/08/07 18:21:31;;;;;;;2.23;1.60;;;23.10;99.90;;;;;;8349187;28;20199;-71
2022/08/07 18:25:34;;;;;;;2.63;1.47;;;22.30;1.00;;;;;;8349211;28;20268;-65
2022/08/07 18:29:51;;;;;;;1.63;1.20;;;21.40;1.00;;;;;;8348075;28;20179;-66
2022/08/07 18:34:29;;;;;;;1.60;1.00;;;20.50;1.00;;;;;;8349000;28;20206;-65
2022/08/07 18:38:49;;;;;;;2.70;1.37;;;19.80;1.00;;;;;;8347233;28;20272;-66
2022/08/07 18:43:22;;;;;;;4.60;1.50;;;19.10;1.00;;;;;;8350484;28;20181;-66
2022/08/07 18:47:54;;;;;;;1.43;1.10;;;18.50;1.00;;;;;;8348516;28;20194;-66
2022/08/07 18:52:06;;;;;;;2.03;1.30;;;18.00;1.00;;;;;;8350581;28;20237;-66
2022/08/07 18:56:55;;;;;;;3.13;1.30;;;17.60;1.00;;;;;;8353076;28;20209;-66
2022/08/07 19:01:02;;;;;;;2.50;1.17;;;17.30;1.00;;;;;;8348495;28;20185;-66
2022/08/07 19:05:26;;;;;;;1.90;1.43;;;16.90;1.00;;;;;;8349027;28;20188;-65
2022/08/07 19:09:46;;;;;;;3.57;1.50;;;16.70;1.00;;;;;;8343740;28;20201;-66
2022/08/07 19:14:14;;;;;;;2.17;1.60;;;16.40;1.00;;;;;;8348320;28;20796;-66
2022/08/07 19:18:28;;;;;;;1.20;1.10;;;16.10;1.00;;;;;;8341321;28;20252;-66
2022/08/07 19:22:54;;;;;;;2.73;1.20;;;15.90;1.00;;;;;;8342995;28;20179;-66
2022/08/07 19:26:57;;;;;;;1.33;1.23;;;15.60;1.00;;;;;;8348569;28;20186;-67
2022/08/07 19:31:11;;;;;;;1.87;1.20;;;15.40;6.70;;;;;;8351606;28;20175;-65
2022/08/07 19:35:24;;;;;;;1.27;1.10;;;15.10;29.90;;;;;;8360767;28;20331;-66
2022/08/07 19:39:28;;;;;;;1.20;1.10;;;15.00;60.10;;;;;;8344232;28;20183;-66
2022/08/07 19:43:31;;;;;;;5.07;1.30;;;14.80;96.10;;;;;;8346772;28;20187;-66
2022/08/07 19:47:34;;;;;;;1.83;1.43;;;14.70;99.90;;;;;;8352772;28;20186;-66
2022/08/07 19:51:40;;;;;;;2.33;1.10;;;14.50;99.90;;;;;;8343268;28;20182;-66
2022/08/07 19:55:43;;;;;;;1.40;1.27;;;14.40;99.90;;;;;;8343706;28;20206;-65
2022/08/07 19:59:51;;;;;;;1.63;1.47;;;14.40;99.90;;;;;;8319839;28;20190;-66
2022/08/07 20:03:55;;;;;;;1.90;1.60;;;14.20;99.90;;;;;;8337173;28;20175;-65
2022/08/07 20:07:59;;;;;;;1.73;1.40;;;14.10;99.90;;;;;;8342067;28;20593;-67
2022/08/07 20:12:01;;;;;;;1.80;1.07;;;14.00;99.90;;;;;;8332159;28;20221;-66
2022/08/07 20:16:08;;;;;;;1.80;1.70;;;13.90;99.90;;;;;;8335726;28;20221;-66
2022/08/07 20:20:10;;;;;;;1.83;1.37;;;13.80;99.90;;;;;;8342762;28;20280;-73
2022/08/07 20:24:18;;;;;;;1.93;1.53;;;13.70;99.90;;;;;;8325396;28;20214;-66
2022/08/07 20:28:20;;;;;;;1.77;1.47;;;13.60;99.90;;;;;;8336465;28;20335;-67
2022/08/07 20:32:30;;;;;;;2.90;1.27;;;13.50;99.90;;;;;;8334595;28;20197;-66
2022/08/07 20:36:32;;;;;;;1.30;1.20;;;13.40;99.90;;;;;;8334230;28;20221;-66
2022/08/07 20:40:45;;;;;;;2.17;1.23;;;13.30;99.90;;;;;;8334178;28;20429;-66
2022/08/07 20:44:48;;;;;;;2.20;1.57;;;13.10;99.90;;;;;;8337020;28;20194;-66
2022/08/07 20:48:52;;;;;;;3.13;1.30;;;13.00;99.90;;;;;;8338662;28;20239;-67
2022/08/07 20:52:56;;;;;;;2.43;1.33;;;12.90;99.90;;;;;;8354118;28;20194;-66
2022/08/07 20:57:02;;;;;;;1.43;1.33;;;12.80;99.90;;;;;;8336637;28;20258;-66
2022/08/07 21:01:10;;;;;;;1.57;1.40;;;12.70;99.90;;;;;;8339927;28;20184;-66
2022/08/07 21:05:17;;;;;;;2.70;1.60;;;12.60;99.90;;;;;;8332311;28;20182;-66
2022/08/07 21:09:19;;;;;;;1.43;1.27;;;12.50;99.90;;;;;;8335528;28;20231;-66
2022/08/07 21:13:21;;;;;;;1.77;1.60;;;12.40;99.90;;;;;;8339500;28;20215;-66
2022/08/07 21:17:31;;;;;;;2.07;1.63;;;12.40;99.90;;;;;;8339151;28;20222;-66
2022/08/07 21:21:32;;;;;;;2.43;1.40;;;12.30;99.90;;;;;;8337026;28;20184;-66
2022/08/07 21:25:57;;;;;;;2.27;1.30;;;12.20;99.90;;;;;;8356241;28;20196;-67
2022/08/07 21:30:07;;;;;;;1.50;1.40;;;12.10;99.90;;;;;;8332377;28;20267;-67
2022/08/07 21:34:31;;;;;;;2.37;1.60;;;12.10;1.00;;;;;;8341997;28;20225;-66
2022/08/07 21:38:47;;;;;;;2.10;1.57;;;12.00;1.00;;;;;;8341555;28;20191;-66
2022/08/07 21:42:53;;;;;;;1.87;1.50;;;11.80;1.00;;;;;;8341692;28;20176;-66
2022/08/07 21:47:15;;;;;;;1.80;1.60;;;11.70;1.00;;;;;;8339651;28;20210;-66
2022/08/07 21:51:32;;;;;;;2.37;1.90;;;11.60;5.00;;;;;;8345027;28;20311;-67
2022/08/07 21:55:44;;;;;;;2.53;1.67;;;11.40;68.70;;;;;;8342356;28;20263;-66
2022/08/07 22:00:22;;;;;;;2.13;1.40;;;11.40;99.90;;;;;;8350692;28;20233;-66